createdAt,value
2018-10-16T00:02:22.032Z,11.67
2018-10-16T00:05:21.991Z,11.85
2018-10-16T00:08:22.013Z,12.05
2018-10-16T00:11:21.938Z,12.31
2018-10-16T00:14:21.900Z,12.29
2018-10-16T00:17:21.872Z,12.33
2018-10-16T00:20:21.875Z,12.57
2018-10-16T00:23:21.775Z,12.51
2018-10-16T00:26:21.766Z,12.45
2018-10-16T00:29:21.722Z,12.52
2018-10-16T00:32:21.696Z,12.46
2018-10-16T00:35:21.640Z,12.29
2018-10-16T00:38:21.676Z,12.27
2018-10-16T00:41:21.615Z,12.39
2018-10-16T00:44:21.563Z,12.49
2018-10-16T00:47:21.510Z,12.33
2018-10-16T00:50:21.489Z,12.09
2018-10-16T00:53:21.439Z,12.09
2018-10-16T00:56:21.689Z,11.89
2018-10-16T00:59:21.385Z,11.52
2018-10-16T01:02:21.374Z,11.34
2018-10-16T01:05:21.336Z,11.13
2018-10-16T01:08:21.280Z,10.84
2018-10-16T01:11:21.242Z,10.94
2018-10-16T01:14:21.234Z,10.80
2018-10-16T01:17:21.171Z,10.91
2018-10-16T01:20:21.162Z,11.14
2018-10-16T01:23:21.107Z,11.38
2018-10-16T01:26:21.111Z,11.52
2018-10-16T01:29:21.042Z,11.38
2018-10-16T01:32:21.016Z,11.13
2018-10-16T01:35:21.028Z,11.07
2018-10-16T01:38:20.958Z,10.98
2018-10-16T01:41:20.906Z,11.03
2018-10-16T01:44:20.906Z,11.02
2018-10-16T01:47:21.081Z,10.88
2018-10-16T01:50:20.853Z,10.74
2018-10-16T01:53:20.773Z,10.60
2018-10-16T01:56:20.753Z,10.39
2018-10-16T01:59:20.696Z,10.14
2018-10-16T02:02:21.153Z,10.07
2018-10-16T02:05:20.647Z,10.30
2018-10-16T02:08:20.610Z,10.33
2018-10-16T02:11:20.631Z,10.33
2018-10-16T02:14:20.552Z,10.30
2018-10-16T02:17:20.499Z,10.14
2018-10-16T02:20:20.551Z,10.18
2018-10-16T02:23:20.433Z,10.59
2018-10-16T02:26:20.436Z,10.98
2018-10-16T02:29:20.390Z,11.10
2018-10-16T02:32:20.335Z,11.01
2018-10-16T02:35:20.338Z,10.95
2018-10-16T02:38:20.294Z,11.01
2018-10-16T02:41:20.232Z,10.86
2018-10-16T02:44:20.228Z,10.58
2018-10-16T02:47:20.162Z,10.55
2018-10-16T02:50:20.140Z,10.88
2018-10-16T02:53:20.130Z,11.14
2018-10-16T02:56:20.086Z,10.92
2018-10-16T02:59:20.056Z,11.03
2018-10-16T03:02:20.001Z,11.07
2018-10-16T03:05:19.991Z,11.28
2018-10-16T03:08:19.973Z,11.41
2018-10-16T03:11:19.882Z,11.57
2018-10-16T03:14:19.898Z,11.52
2018-10-16T03:17:19.842Z,11.35
2018-10-16T03:20:19.866Z,11.27
2018-10-16T03:23:19.830Z,11.25
2018-10-16T03:26:19.743Z,11.52
2018-10-16T03:29:19.686Z,11.41
2018-10-16T03:32:19.698Z,11.47
2018-10-16T03:35:19.632Z,11.36
2018-10-16T03:38:19.610Z,11.25
2018-10-16T03:41:19.560Z,11.10
2018-10-16T03:44:19.562Z,10.91
2018-10-16T03:47:19.482Z,10.77
2018-10-16T03:50:19.468Z,10.76
2018-10-16T03:53:19.415Z,10.65
2018-10-16T03:56:19.393Z,10.74
2018-10-16T03:59:19.380Z,10.47
2018-10-16T04:02:19.340Z,10.33
2018-10-16T04:05:19.288Z,10.18
2018-10-16T04:08:19.272Z,10.06
2018-10-16T04:11:20.119Z,10.14
2018-10-16T04:14:19.200Z,10.47
2018-10-16T04:17:19.176Z,10.65
2018-10-16T04:20:19.120Z,10.77
2018-10-16T04:23:19.135Z,11.02
2018-10-16T04:26:19.103Z,10.91
2018-10-16T04:29:19.138Z,10.81
2018-10-16T04:32:19.041Z,10.76
2018-10-16T04:35:18.947Z,10.80
2018-10-16T04:38:18.921Z,10.55
2018-10-16T04:41:18.896Z,10.37
2018-10-16T04:44:18.851Z,10.06
2018-10-16T04:47:18.855Z,10.04
2018-10-16T04:50:18.802Z,10.09
2018-10-16T04:53:18.743Z,10.00
2018-10-16T04:56:19.067Z,9.78
2018-10-16T04:59:18.675Z,9.67
2018-10-16T05:02:18.669Z,9.53
2018-10-16T05:05:18.624Z,9.49
2018-10-16T05:08:18.584Z,9.57
2018-10-16T05:11:18.533Z,9.67
2018-10-16T05:14:18.588Z,9.63
2018-10-16T05:17:18.473Z,9.56
2018-10-16T05:20:18.462Z,9.50
2018-10-16T05:23:18.410Z,9.39
2018-10-16T05:26:18.424Z,9.39
2018-10-16T05:29:18.386Z,9.56
2018-10-16T05:32:18.330Z,9.56
2018-10-16T05:35:18.291Z,9.40
2018-10-16T05:38:18.260Z,9.30
2018-10-16T05:41:18.203Z,9.23
2018-10-16T05:44:18.263Z,9.24
2018-10-16T05:47:18.208Z,9.31
2018-10-16T05:50:18.113Z,9.15
2018-10-16T05:53:18.095Z,9.13
2018-10-16T05:56:18.091Z,8.97
2018-10-16T05:59:18.007Z,8.84
2018-10-16T06:02:18.014Z,8.99
2018-10-16T06:05:18.595Z,9.15
2018-10-16T06:08:17.926Z,9.09
2018-10-16T06:11:17.873Z,9.13
2018-10-16T06:14:17.861Z,9.15
2018-10-16T06:17:17.840Z,9.18
2018-10-16T06:20:17.786Z,9.42
2018-10-16T06:23:17.776Z,9.89
2018-10-16T06:26:17.929Z,10.46
2018-10-16T06:29:17.667Z,10.83
2018-10-16T06:32:17.659Z,11.07
2018-10-16T06:35:17.615Z,10.98
2018-10-16T06:38:17.612Z,10.99
2018-10-16T06:41:17.664Z,11.10
2018-10-16T06:44:17.588Z,11.39
2018-10-16T06:47:17.528Z,11.83
2018-10-16T06:50:17.448Z,12.02
2018-10-16T06:53:17.504Z,12.11
2018-10-16T06:56:17.388Z,12.24
2018-10-16T06:59:17.373Z,12.31
2018-10-16T07:02:17.474Z,12.42
2018-10-16T07:05:17.319Z,12.59
2018-10-16T07:08:17.286Z,12.63
2018-10-16T07:11:17.208Z,12.87
2018-10-16T07:14:17.254Z,13.07
2018-10-16T07:17:17.138Z,13.18
2018-10-16T07:20:17.167Z,13.63
2018-10-16T07:23:17.065Z,13.88
2018-10-16T07:26:17.083Z,14.98
2018-10-16T07:29:16.990Z,16.35
2018-10-16T07:32:17.102Z,18.04
2018-10-16T07:35:16.939Z,17.92
2018-10-16T07:38:16.957Z,19.23
2018-10-16T07:41:16.860Z,19.08
2018-10-16T07:44:16.834Z,19.06
2018-10-16T07:47:16.819Z,18.18
2018-10-16T07:50:16.786Z,19.86
2018-10-16T07:53:16.726Z,20.62
2018-10-16T07:56:16.715Z,21.54
2018-10-16T07:59:16.673Z,20.90
2018-10-16T08:02:17.570Z,20.30
2018-10-16T08:05:16.608Z,22.10
2018-10-16T08:08:16.590Z,23.50
2018-10-16T08:11:16.572Z,24.16
2018-10-16T08:14:16.638Z,24.12
2018-10-16T08:17:16.572Z,24.02
2018-10-16T08:20:16.438Z,24.80
2018-10-16T08:23:16.385Z,25.68
2018-10-16T08:26:16.360Z,25.90
2018-10-16T08:29:16.319Z,25.90
2018-10-16T08:32:16.335Z,26.15
2018-10-16T08:35:16.251Z,26.50
2018-10-16T08:38:16.225Z,26.62
2018-10-16T08:41:16.267Z,27.31
2018-10-16T08:44:16.168Z,26.96
2018-10-16T08:47:16.156Z,27.11
2018-10-16T08:50:16.119Z,27.86
2018-10-16T08:53:16.044Z,27.38
2018-10-16T08:56:16.049Z,27.46
2018-10-16T08:59:16.004Z,26.94
2018-10-16T09:02:15.969Z,26.74
2018-10-16T09:05:15.945Z,26.37
2018-10-16T09:08:15.983Z,26.24
2018-10-16T09:11:15.859Z,26.40
2018-10-16T09:14:15.905Z,26.09
2018-10-16T09:17:15.812Z,27.20
2018-10-16T09:20:15.777Z,27.70
2018-10-16T09:23:15.738Z,27.14
2018-10-16T09:26:15.747Z,25.90
2018-10-16T09:29:15.662Z,26.46
2018-10-16T09:32:15.665Z,26.40
2018-10-16T09:35:15.607Z,24.35
2018-10-16T09:38:15.576Z,22.83
2018-10-16T09:41:15.537Z,22.62
2018-10-16T09:44:15.513Z,25.15
2018-10-16T09:47:15.475Z,27.54
2018-10-16T09:50:15.445Z,28.59
2018-10-16T09:53:15.431Z,29.26
2018-10-16T09:56:15.381Z,29.34
2018-10-16T09:59:15.381Z,29.55
2018-10-16T10:02:15.347Z,29.08
2018-10-16T10:05:15.286Z,29.22
2018-10-16T10:08:15.311Z,29.49
2018-10-16T10:11:15.226Z,28.13
2018-10-16T10:14:15.207Z,27.35
2018-10-16T10:17:15.407Z,27.57
2018-10-16T10:20:15.188Z,27.77
2018-10-16T10:23:15.143Z,28.85
2018-10-16T10:26:15.073Z,28.19
2018-10-16T10:29:15.057Z,27.33
2018-10-16T10:32:15.037Z,27.28
2018-10-16T10:35:15.011Z,27.32
2018-10-16T10:38:14.974Z,28.82
2018-10-16T10:41:14.937Z,29.08
2018-10-16T10:44:14.892Z,30.27
2018-10-16T10:47:14.873Z,29.33
2018-10-16T10:50:14.944Z,28.50
2018-10-16T10:53:14.776Z,28.77
2018-10-16T10:56:14.831Z,29.52
2018-10-16T10:59:14.712Z,31.26
2018-10-16T11:02:14.695Z,30.50
2018-10-16T11:05:14.706Z,29.16
2018-10-16T11:08:14.675Z,27.91
2018-10-16T11:11:14.597Z,27.29
2018-10-16T11:14:14.610Z,27.50
2018-10-16T11:17:14.535Z,28.62
2018-10-16T11:20:14.524Z,30.09
2018-10-16T11:23:14.513Z,29.57
2018-10-16T11:26:14.459Z,29.20
2018-10-16T11:29:14.410Z,28.93
2018-10-16T11:32:14.410Z,29.93
2018-10-16T11:35:14.387Z,29.19
2018-10-16T11:38:14.329Z,28.63
2018-10-16T11:41:14.310Z,28.85
2018-10-16T11:44:14.292Z,28.09
2018-10-16T11:47:15.089Z,28.62
2018-10-16T11:50:14.350Z,29.13
2018-10-16T11:53:14.160Z,30.43
2018-10-16T11:56:14.231Z,30.64
2018-10-16T11:59:14.188Z,29.82
2018-10-16T12:02:14.185Z,29.10
2018-10-16T12:05:14.058Z,28.68
2018-10-16T12:08:14.086Z,29.31
2018-10-16T12:11:14.039Z,29.75
2018-10-16T12:14:14.021Z,29.37
2018-10-16T12:17:13.932Z,28.97
2018-10-16T12:20:13.908Z,28.87
2018-10-16T12:23:14.193Z,28.84
2018-10-16T12:26:13.875Z,28.19
2018-10-16T12:29:13.800Z,28.09
2018-10-16T12:32:13.831Z,28.44
2018-10-16T12:35:13.756Z,29.08
2018-10-16T12:38:13.779Z,28.84
2018-10-16T12:41:13.782Z,28.01
2018-10-16T12:44:13.690Z,27.41
2018-10-16T12:47:13.685Z,27.17
2018-10-16T12:50:13.696Z,26.81
2018-10-16T12:53:13.640Z,26.79
2018-10-16T12:56:13.630Z,27.80
2018-10-16T12:59:13.637Z,27.62
2018-10-16T13:02:13.567Z,27.46
2018-10-16T13:05:13.519Z,26.39
2018-10-16T13:08:13.565Z,26.57
2018-10-16T13:11:13.465Z,26.47
2018-10-16T13:14:13.485Z,26.09
2018-10-16T13:17:13.406Z,26.08
2018-10-16T13:20:13.411Z,26.06
2018-10-16T13:23:13.282Z,26.27
2018-10-16T13:26:13.384Z,26.20
2018-10-16T13:29:13.293Z,26.20
2018-10-16T13:32:13.249Z,28.06
2018-10-16T13:35:13.206Z,28.50
2018-10-16T13:38:13.165Z,27.06
2018-10-16T13:41:13.049Z,26.58
2018-10-16T13:44:13.155Z,26.94
2018-10-16T13:47:12.977Z,26.80
2018-10-16T13:50:13.036Z,27.67
2018-10-16T13:53:12.939Z,27.39
2018-10-16T13:56:12.962Z,26.95
2018-10-16T13:59:12.859Z,26.57
2018-10-16T14:02:12.934Z,26.49
2018-10-16T14:05:12.804Z,26.09
2018-10-16T14:08:12.871Z,26.64
2018-10-16T14:11:12.739Z,26.67
2018-10-16T14:14:12.886Z,26.57
2018-10-16T14:17:12.657Z,26.12
2018-10-16T14:20:12.732Z,26.28
2018-10-16T14:23:12.603Z,26.15
2018-10-16T14:26:12.631Z,25.62
2018-10-16T14:29:12.551Z,25.61
2018-10-16T14:32:12.637Z,25.84
2018-10-16T14:35:12.468Z,25.99
2018-10-16T14:38:12.557Z,25.90
2018-10-16T14:41:12.423Z,26.28
2018-10-16T14:44:12.453Z,25.84
2018-10-16T14:47:13.714Z,25.28
2018-10-16T14:50:12.497Z,25.27
2018-10-16T14:53:12.289Z,24.94
2018-10-16T14:56:12.335Z,24.90
2018-10-16T14:59:12.224Z,25.16
2018-10-16T15:02:12.283Z,25.24
2018-10-16T15:05:12.191Z,25.53
2018-10-16T15:08:12.143Z,25.82
2018-10-16T15:11:12.092Z,25.75
2018-10-16T15:14:12.201Z,25.22
2018-10-16T15:17:12.050Z,25.06
2018-10-16T15:20:12.148Z,24.79
2018-10-16T15:23:11.965Z,24.52
2018-10-16T15:26:12.041Z,24.68
2018-10-16T15:29:11.914Z,24.45
2018-10-16T15:32:11.938Z,24.10
2018-10-16T15:35:11.872Z,23.79
2018-10-16T15:38:11.925Z,23.58
2018-10-16T15:41:11.780Z,23.40
2018-10-16T15:44:11.843Z,23.27
2018-10-16T15:47:11.752Z,23.04
2018-10-16T15:50:11.759Z,22.87
2018-10-16T15:53:11.650Z,22.80
2018-10-16T15:56:11.751Z,22.72
2018-10-16T15:59:11.578Z,22.54
2018-10-16T16:02:11.663Z,22.29
2018-10-16T16:05:11.506Z,22.04
2018-10-16T16:08:11.531Z,21.76
2018-10-16T16:11:11.428Z,21.60
2018-10-16T16:14:11.528Z,21.36
2018-10-16T16:17:11.361Z,21.06
2018-10-16T16:20:11.489Z,20.58
2018-10-16T16:23:11.336Z,20.03
2018-10-16T16:26:11.385Z,19.88
2018-10-16T16:29:11.239Z,19.69
2018-10-16T16:32:11.245Z,19.51
2018-10-16T16:35:11.241Z,19.46
2018-10-16T16:38:11.238Z,19.20
2018-10-16T16:41:11.142Z,19.17
2018-10-16T16:44:11.213Z,19.05
2018-10-16T16:47:11.422Z,18.92
2018-10-16T16:50:11.108Z,18.80
2018-10-16T16:53:11.010Z,18.59
2018-10-16T16:56:11.058Z,18.37
2018-10-16T16:59:11.010Z,18.36
2018-10-16T17:02:11.000Z,18.21
2018-10-16T17:05:10.818Z,17.99
2018-10-16T17:08:10.961Z,17.87
2018-10-16T17:11:10.754Z,17.70
2018-10-16T17:14:10.885Z,17.63
2018-10-16T17:17:10.739Z,17.69
2018-10-16T17:20:10.761Z,17.73
2018-10-16T17:23:10.701Z,18.06
2018-10-16T17:26:10.937Z,18.28
2018-10-16T17:29:10.546Z,18.49
2018-10-16T17:32:10.520Z,18.52
2018-10-16T17:35:10.485Z,18.50
2018-10-16T17:38:10.454Z,18.62
2018-10-16T17:41:10.474Z,18.39
2018-10-16T17:44:10.397Z,18.42
2018-10-16T17:47:10.344Z,18.28
2018-10-16T17:50:10.311Z,18.25
2018-10-16T17:53:10.287Z,18.06
2018-10-16T17:56:10.246Z,18.17
2018-10-16T17:59:10.200Z,18.18
2018-10-16T18:02:10.184Z,18.04
2018-10-16T18:05:10.131Z,17.78
2018-10-16T18:08:10.127Z,17.74
2018-10-16T18:11:10.065Z,17.59
2018-10-16T18:14:10.110Z,17.57
2018-10-16T18:17:10.012Z,17.35
2018-10-16T18:20:10.001Z,17.15
2018-10-16T18:23:09.936Z,17.13
2018-10-16T18:26:09.954Z,17.25
2018-10-16T18:29:09.865Z,17.10
2018-10-16T18:32:09.900Z,17.08
2018-10-16T18:35:09.816Z,16.96
2018-10-16T18:38:09.778Z,16.90
2018-10-16T18:41:09.723Z,16.93
2018-10-16T18:44:09.713Z,17.22
2018-10-16T18:47:09.651Z,17.59
2018-10-16T18:50:09.638Z,17.62
2018-10-16T18:53:09.590Z,17.63
2018-10-16T18:56:09.560Z,17.54
2018-10-16T18:59:09.508Z,17.44
2018-10-16T19:02:09.552Z,17.28
2018-10-16T19:05:09.445Z,17.20
2018-10-16T19:08:09.426Z,17.14
2018-10-16T19:11:09.372Z,17.13
2018-10-16T19:14:09.373Z,17.00
2018-10-16T19:17:09.307Z,16.90
2018-10-16T19:20:09.334Z,16.73
2018-10-16T19:23:09.251Z,16.56
2018-10-16T19:26:09.374Z,16.63
2018-10-16T19:29:09.185Z,16.48
2018-10-16T19:32:09.168Z,16.37
2018-10-16T19:35:09.111Z,16.15
2018-10-16T19:38:09.128Z,16.34
2018-10-16T19:41:09.050Z,16.68
2018-10-16T19:44:09.018Z,16.86
2018-10-16T19:47:10.130Z,16.78
2018-10-16T19:50:08.937Z,16.90
2018-10-16T19:53:08.897Z,16.89
2018-10-16T19:56:08.883Z,16.63
2018-10-16T19:59:08.844Z,16.04
2018-10-16T20:02:08.806Z,15.60
2018-10-16T20:05:08.755Z,15.23
2018-10-16T20:08:08.813Z,14.99
2018-10-16T20:11:08.704Z,14.64
2018-10-16T20:14:08.695Z,14.46
2018-10-16T20:17:08.624Z,14.37
2018-10-16T20:20:08.614Z,14.57
2018-10-16T20:23:08.563Z,14.60
2018-10-16T20:26:08.540Z,14.37
2018-10-16T20:29:08.502Z,14.01
2018-10-16T20:32:08.468Z,13.76
2018-10-16T20:35:08.420Z,13.43
2018-10-16T20:38:08.407Z,13.49
2018-10-16T20:41:08.361Z,13.67
2018-10-16T20:44:08.341Z,14.01
2018-10-16T20:47:08.327Z,14.37
2018-10-16T20:50:08.321Z,14.52
2018-10-16T20:53:08.232Z,14.72
2018-10-16T20:56:08.203Z,14.72
2018-10-16T20:59:08.157Z,14.67
2018-10-16T21:02:09.169Z,14.60
2018-10-16T21:05:10.307Z,14.71
2018-10-16T21:08:08.083Z,14.56
2018-10-16T21:11:08.109Z,14.65
2018-10-16T21:14:08.007Z,14.64
2018-10-16T21:17:08.015Z,14.71
2018-10-16T21:20:07.929Z,14.87
2018-10-16T21:23:08.013Z,15.11
2018-10-16T21:26:07.875Z,14.93
2018-10-16T21:29:07.947Z,14.94
2018-10-16T21:32:07.793Z,14.87
2018-10-16T21:35:07.819Z,14.90
2018-10-16T21:38:07.743Z,15.09
2018-10-16T21:41:07.738Z,15.15
2018-10-16T21:44:07.696Z,15.17
2018-10-16T21:47:07.662Z,14.91
2018-10-16T21:50:07.637Z,14.69
2018-10-16T21:53:07.553Z,14.52
2018-10-16T21:56:07.545Z,14.27
2018-10-16T21:59:07.623Z,13.94
2018-10-16T22:02:07.511Z,13.73
2018-10-16T22:05:07.421Z,13.54
2018-10-16T22:08:07.457Z,13.30
2018-10-16T22:11:07.403Z,13.22
2018-10-16T22:14:07.347Z,13.18
2018-10-16T22:17:07.373Z,13.11
2018-10-16T22:20:07.325Z,13.09
2018-10-16T22:23:07.260Z,13.22
2018-10-16T22:26:07.287Z,12.93
2018-10-16T22:29:08.175Z,12.37
2018-10-16T22:32:07.393Z,12.13
2018-10-16T22:35:07.088Z,12.04
2018-10-16T22:38:07.135Z,12.05
2018-10-16T22:41:07.100Z,12.11
2018-10-16T22:44:06.978Z,12.09
2018-10-16T22:47:06.971Z,12.27
2018-10-16T22:50:06.914Z,12.48
2018-10-16T22:53:07.002Z,12.75
2018-10-16T22:56:06.858Z,13.14
2018-10-16T22:59:06.847Z,13.30
2018-10-16T23:02:06.787Z,13.30
2018-10-16T23:05:06.815Z,13.17
2018-10-16T23:08:06.729Z,13.04
2018-10-16T23:11:06.712Z,13.06
2018-10-16T23:14:06.658Z,13.11
2018-10-16T23:17:06.667Z,13.27
2018-10-16T23:20:06.571Z,13.29
2018-10-16T23:23:06.599Z,13.27
2018-10-16T23:26:06.511Z,13.18
2018-10-16T23:29:06.558Z,13.22
2018-10-16T23:32:06.446Z,13.17
2018-10-16T23:35:06.500Z,13.02
2018-10-16T23:38:06.390Z,12.77
2018-10-16T23:41:06.388Z,12.31
2018-10-16T23:44:06.312Z,12.15
2018-10-16T23:47:06.327Z,12.02
2018-10-16T23:50:06.284Z,12.06
2018-10-16T23:53:06.264Z,11.85
2018-10-16T23:56:06.187Z,11.80
2018-10-16T23:59:06.178Z,11.89
